createdAt,value
2018-01-06T00:01:29.497Z,64.88
2018-01-06T00:04:06.781Z,64.61
2018-01-06T00:06:37.181Z,64.24
2018-01-06T00:09:08.344Z,64.50
2018-01-06T00:11:40.756Z,64.64
2018-01-06T00:14:12.438Z,64.79
2018-01-06T00:16:44.256Z,66.00
2018-01-06T00:19:16.555Z,65.68
2018-01-06T00:21:47.205Z,65.42
2018-01-06T00:24:19.515Z,65.32
2018-01-06T00:26:54.435Z,66.61
2018-01-06T00:29:29.017Z,67.31
2018-01-06T00:32:00.400Z,66.90
2018-01-06T00:34:31.083Z,67.12
2018-01-06T00:37:02.483Z,66.33
2018-01-06T00:39:34.786Z,65.90
2018-01-06T00:42:06.666Z,65.42
2018-01-06T00:44:39.023Z,64.93
2018-01-06T00:47:12.450Z,65.53
2018-01-06T00:49:43.981Z,65.37
2018-01-06T00:52:14.816Z,65.46
2018-01-06T00:54:47.684Z,65.78
2018-01-06T00:57:19.034Z,66.16
2018-01-06T00:59:49.854Z,66.33
2018-01-06T01:02:20.468Z,66.55
2018-01-06T01:04:50.904Z,67.45
2018-01-06T01:07:21.424Z,66.78
2018-01-06T01:09:52.726Z,66.86
2018-01-06T01:12:24.876Z,66.88
2018-01-06T01:15:01.331Z,66.02
2018-01-06T01:17:34.035Z,65.62
2018-01-06T01:20:05.462Z,65.19
2018-01-06T01:22:37.377Z,64.84
2018-01-06T01:25:08.511Z,64.45
2018-01-06T01:27:40.183Z,64.24
2018-01-06T01:30:15.747Z,64.26
2018-01-06T01:32:47.143Z,64.24
2018-01-06T01:35:18.071Z,64.17
2018-01-06T01:37:49.139Z,63.97
2018-01-06T01:40:21.020Z,63.74
2018-01-06T01:42:53.375Z,63.89
2018-01-06T01:45:24.266Z,64.04
2018-01-06T01:47:54.949Z,63.74
2018-01-06T01:50:25.283Z,63.81
2018-01-06T01:52:56.752Z,64.07
2018-01-06T01:55:27.911Z,64.48
2018-01-06T01:57:58.563Z,64.77
2018-01-06T02:00:29.216Z,65.18
2018-01-06T02:03:00.990Z,65.28
2018-01-06T02:05:32.256Z,65.19
2018-01-06T02:08:03.633Z,65.15
2018-01-06T02:10:34.362Z,65.05
2018-01-06T02:13:06.150Z,65.11
2018-01-06T02:15:36.789Z,64.95
2018-01-06T02:18:10.104Z,64.95
2018-01-06T02:20:42.311Z,64.76
2018-01-06T02:23:13.071Z,65.16
2018-01-06T02:25:45.873Z,65.25
2018-01-06T02:28:16.860Z,64.90
2018-01-06T02:30:50.109Z,65.01
2018-01-06T02:33:21.936Z,65.11
2018-01-06T02:35:53.228Z,64.92
2018-01-06T02:38:25.954Z,65.55
2018-01-06T02:40:58.173Z,66.33
2018-01-06T02:43:30.709Z,66.46
2018-01-06T02:46:04.812Z,66.68
2018-01-06T02:48:35.577Z,66.55
2018-01-06T02:51:06.608Z,66.01
2018-01-06T02:53:37.565Z,65.62
2018-01-06T02:56:10.225Z,66.60
2018-01-06T02:58:42.327Z,65.87
2018-01-06T03:01:13.737Z,65.63
2018-01-06T03:03:44.907Z,65.11
2018-01-06T03:06:15.690Z,65.89
2018-01-06T03:08:46.452Z,66.18
2018-01-06T03:11:17.716Z,65.80
2018-01-06T03:13:48.006Z,65.64
2018-01-06T03:16:18.824Z,65.97
2018-01-06T03:18:49.381Z,66.25
2018-01-06T03:21:19.621Z,66.36
2018-01-06T03:23:49.898Z,67.37
2018-01-06T03:26:21.240Z,67.59
2018-01-06T03:28:52.144Z,67.48
2018-01-06T03:31:28.434Z,66.70
2018-01-06T03:34:00.348Z,65.87
2018-01-06T03:36:30.706Z,65.42
2018-01-06T03:39:01.772Z,65.07
2018-01-06T03:41:32.678Z,65.48
2018-01-06T03:44:03.162Z,65.41
2018-01-06T03:46:34.506Z,65.12
2018-01-06T03:49:05.612Z,64.97
2018-01-06T03:51:36.187Z,64.90
2018-01-06T03:54:07.034Z,64.73
2018-01-06T03:56:37.492Z,64.79
2018-01-06T03:59:08.721Z,64.78
2018-01-06T04:01:40.338Z,64.93
2018-01-06T04:04:11.150Z,65.19
2018-01-06T04:06:42.554Z,65.17
2018-01-06T04:09:12.946Z,65.13
2018-01-06T04:11:44.291Z,65.00
2018-01-06T04:14:15.503Z,64.96
2018-01-06T04:16:46.228Z,64.96
2018-01-06T04:19:16.803Z,64.85
2018-01-06T04:21:47.413Z,64.87
2018-01-06T04:24:18.692Z,64.95
2018-01-06T04:26:49.951Z,65.11
2018-01-06T04:29:20.387Z,65.13
2018-01-06T04:31:56.214Z,65.05
2018-01-06T04:34:26.757Z,65.01
2018-01-06T04:37:03.878Z,64.96
2018-01-06T04:39:34.554Z,64.94
2018-01-06T04:42:05.024Z,64.94
2018-01-06T04:44:35.286Z,65.04
2018-01-06T04:47:06.959Z,65.12
2018-01-06T04:49:37.450Z,65.09
2018-01-06T04:52:08.016Z,65.18
2018-01-06T04:54:38.640Z,65.19
2018-01-06T04:57:09.351Z,65.26
2018-01-06T04:59:39.749Z,65.42
2018-01-06T05:02:10.267Z,65.56
2018-01-06T05:04:40.896Z,66.00
2018-01-06T05:07:11.477Z,66.18
2018-01-06T05:09:42.273Z,66.28
2018-01-06T05:12:12.914Z,65.84
2018-01-06T05:14:43.434Z,65.65
2018-01-06T05:17:14.321Z,65.72
2018-01-06T05:19:45.169Z,65.67
2018-01-06T05:22:15.460Z,65.86
2018-01-06T05:24:45.809Z,65.93
2018-01-06T05:27:16.354Z,66.01
2018-01-06T05:29:47.353Z,66.24
2018-01-06T05:32:18.404Z,66.08
2018-01-06T05:34:48.757Z,65.94
2018-01-06T05:37:19.968Z,65.91
2018-01-06T05:39:50.725Z,65.92
2018-01-06T05:42:21.055Z,66.34
2018-01-06T05:44:51.299Z,66.73
2018-01-06T05:47:21.751Z,66.60
2018-01-06T05:49:52.019Z,66.60
2018-01-06T05:52:22.766Z,66.47
2018-01-06T05:54:53.596Z,66.40
2018-01-06T05:57:23.973Z,66.41
2018-01-06T05:59:54.490Z,66.59
2018-01-06T06:02:25.011Z,66.84
2018-01-06T06:04:55.970Z,66.87
2018-01-06T06:07:26.953Z,66.95
2018-01-06T06:09:57.362Z,66.80
2018-01-06T06:12:28.176Z,66.52
2018-01-06T06:14:58.413Z,66.36
2018-01-06T06:17:29.690Z,66.54
2018-01-06T06:20:00.666Z,66.85
2018-01-06T06:22:31.032Z,66.61
2018-01-06T06:25:01.918Z,66.59
2018-01-06T06:27:32.742Z,67.02
2018-01-06T06:30:07.691Z,66.68
2018-01-06T06:32:38.318Z,66.64
2018-01-06T06:35:09.883Z,66.65
2018-01-06T06:37:41.478Z,66.64
2018-01-06T06:40:12.062Z,66.68
2018-01-06T06:42:44.576Z,66.86
2018-01-06T06:45:16.832Z,66.79
2018-01-06T06:47:48.396Z,66.67
2018-01-06T06:50:19.720Z,66.71
2018-01-06T06:52:50.146Z,66.85
2018-01-06T06:55:20.364Z,66.96
2018-01-06T06:57:51.536Z,66.95
2018-01-06T07:00:22.291Z,66.79
2018-01-06T07:02:53.836Z,66.64
2018-01-06T07:05:24.369Z,66.57
2018-01-06T07:07:54.935Z,66.64
2018-01-06T07:10:26.043Z,67.01
2018-01-06T07:12:57.459Z,67.09
2018-01-06T07:15:28.020Z,67.25
2018-01-06T07:17:58.680Z,67.01
2018-01-06T07:20:28.975Z,66.75
2018-01-06T07:22:59.853Z,66.58
2018-01-06T07:25:36.943Z,66.58
2018-01-06T07:28:07.904Z,66.57
2018-01-06T07:30:38.380Z,66.60
2018-01-06T07:33:12.637Z,66.75
2018-01-06T07:35:43.979Z,66.80
2018-01-06T07:38:14.844Z,66.71
2018-01-06T07:40:45.347Z,66.88
2018-01-06T07:43:16.700Z,66.63
2018-01-06T07:45:47.397Z,66.48
2018-01-06T07:48:23.564Z,66.36
2018-01-06T07:50:54.837Z,66.90
2018-01-06T07:53:25.646Z,66.89
2018-01-06T07:55:56.177Z,66.86
2018-01-06T07:58:26.443Z,66.69
2018-01-06T08:00:59.015Z,66.61
2018-01-06T08:03:29.630Z,66.47
2018-01-06T08:06:01.093Z,66.30
2018-01-06T08:08:32.330Z,66.05
2018-01-06T08:11:02.929Z,66.17
2018-01-06T08:13:33.350Z,66.04
2018-01-06T08:16:12.259Z,66.20
2018-01-06T08:18:42.810Z,66.52
2018-01-06T08:21:15.103Z,66.70
2018-01-06T08:23:45.557Z,66.38
2018-01-06T08:26:16.519Z,66.16
2018-01-06T08:28:48.963Z,65.99
2018-01-06T08:31:20.294Z,65.77
2018-01-06T08:33:50.621Z,65.61
2018-01-06T08:36:20.759Z,65.84
2018-01-06T08:38:52.501Z,65.71
2018-01-06T08:41:23.482Z,65.67
2018-01-06T08:43:53.993Z,65.33
2018-01-06T08:46:24.882Z,65.20
2018-01-06T08:48:56.347Z,65.26
2018-01-06T08:51:28.226Z,65.07
2018-01-06T08:53:59.781Z,65.31
2018-01-06T08:56:30.172Z,64.92
2018-01-06T08:59:02.313Z,65.10
2018-01-06T09:01:33.308Z,64.89
2018-01-06T09:04:04.182Z,64.76
2018-01-06T09:06:35.169Z,64.64
2018-01-06T09:09:06.586Z,64.69
2018-01-06T09:11:37.365Z,64.90
2018-01-06T09:14:07.920Z,64.79
2018-01-06T09:16:38.899Z,64.50
2018-01-06T09:19:09.295Z,64.34
2018-01-06T09:21:51.135Z,64.07
2018-01-06T09:24:22.806Z,63.86
2018-01-06T09:26:55.915Z,63.69
2018-01-06T09:29:27.192Z,63.44
2018-01-06T09:31:57.823Z,63.23
2018-01-06T09:34:28.518Z,63.61
2018-01-06T09:36:59.238Z,63.48
2018-01-06T09:39:29.981Z,63.04
2018-01-06T09:42:08.302Z,62.62
2018-01-06T09:44:38.683Z,62.27
2018-01-06T09:47:09.679Z,61.97
2018-01-06T09:49:40.417Z,62.01
2018-01-06T09:52:10.813Z,62.23
2018-01-06T09:54:43.400Z,62.30
2018-01-06T09:57:15.562Z,62.16
2018-01-06T09:59:48.678Z,62.03
2018-01-06T10:02:19.546Z,61.67
2018-01-06T10:04:50.680Z,61.58
2018-01-06T10:07:22.419Z,60.81
2018-01-06T10:09:53.595Z,61.47
2018-01-06T10:12:24.333Z,61.34
2018-01-06T10:14:56.243Z,61.05
2018-01-06T10:17:27.563Z,60.64
2018-01-06T10:19:58.180Z,60.64
2018-01-06T10:22:30.571Z,61.10
2018-01-06T10:25:03.153Z,60.39
2018-01-06T10:27:37.452Z,60.50
2018-01-06T10:30:08.868Z,60.21
2018-01-06T10:32:40.349Z,59.74
2018-01-06T10:35:11.537Z,60.13
2018-01-06T10:37:43.006Z,60.04
2018-01-06T10:40:14.390Z,59.89
2018-01-06T10:42:45.562Z,59.99
2018-01-06T10:45:19.517Z,59.84
2018-01-06T10:47:58.089Z,59.70
2018-01-06T10:50:30.690Z,59.53
2018-01-06T10:53:04.207Z,59.62
2018-01-06T10:55:34.828Z,59.51
2018-01-06T10:58:05.888Z,59.32
2018-01-06T11:00:41.995Z,59.15
2018-01-06T11:03:14.851Z,59.05
2018-01-06T11:05:47.324Z,59.10
2018-01-06T11:11:06.939Z,59.19
2018-01-06T11:13:44.883Z,59.32
2018-01-06T11:16:21.501Z,58.67
2018-01-06T11:18:59.302Z,58.62
2018-01-06T11:21:33.527Z,58.66
2018-01-06T11:24:11.685Z,58.55
2018-01-06T11:26:47.680Z,58.44
2018-01-06T11:29:24.637Z,58.36
2018-01-06T11:32:17.011Z,58.24
2018-01-06T11:34:58.399Z,58.11
2018-01-06T11:37:33.093Z,58.38
2018-01-06T11:40:13.456Z,58.55
2018-01-06T11:45:47.628Z,57.94
2018-01-06T11:48:27.588Z,58.07
2018-01-06T11:51:03.338Z,57.88
2018-01-06T11:53:38.662Z,57.74
2018-01-06T11:56:19.657Z,57.70
2018-01-06T11:59:12.463Z,57.85
2018-01-06T12:01:47.584Z,57.62
2018-01-06T12:04:21.268Z,57.48
2018-01-06T12:07:04.992Z,57.56
2018-01-06T12:09:44.654Z,57.55
2018-01-06T12:12:20.113Z,57.72
2018-01-06T12:14:55.928Z,57.55
2018-01-06T12:17:35.058Z,57.66
2018-01-06T12:20:12.185Z,57.16
2018-01-06T12:22:47.730Z,57.29
2018-01-06T12:25:27.493Z,57.03
2018-01-06T12:28:03.871Z,57.26
2018-01-06T12:30:45.222Z,57.62
2018-01-06T12:33:22.210Z,59.28
2018-01-06T12:35:58.130Z,59.43
2018-01-06T12:38:34.378Z,59.21
2018-01-06T12:41:12.314Z,58.79
2018-01-06T12:43:52.846Z,58.51
2018-01-06T12:46:29.226Z,57.92
2018-01-06T12:49:03.692Z,57.80
2018-01-06T12:51:38.534Z,57.54
2018-01-06T12:54:09.819Z,57.67
2018-01-06T12:56:40.786Z,57.46
2018-01-06T12:59:11.557Z,57.85
2018-01-06T13:01:45.389Z,57.83
2018-01-06T13:04:17.586Z,57.68
2018-01-06T13:06:48.216Z,57.74
2018-01-06T13:09:20.117Z,57.70
2018-01-06T13:11:59.834Z,57.57
2018-01-06T13:14:37.689Z,57.29
2018-01-06T13:17:13.240Z,57.30
2018-01-06T13:19:49.171Z,57.36
2018-01-06T13:22:27.532Z,57.14
2018-01-06T13:25:05.188Z,56.63
2018-01-06T13:27:42.527Z,57.11
2018-01-06T13:30:20.125Z,56.96
2018-01-06T13:32:59.622Z,57.46
2018-01-06T13:35:34.277Z,58.90
2018-01-06T13:38:10.243Z,58.47
2018-01-06T13:40:44.460Z,59.31
2018-01-06T13:43:18.817Z,59.74
2018-01-06T13:45:53.282Z,58.75
2018-01-06T13:48:32.566Z,58.14
2018-01-06T13:51:04.963Z,57.83
2018-01-06T13:53:37.410Z,57.50
2018-01-06T13:56:12.345Z,57.14
2018-01-06T13:58:49.003Z,57.10
2018-01-06T14:01:24.095Z,56.86
2018-01-06T14:03:59.816Z,56.75
2018-01-06T14:06:31.742Z,56.42
2018-01-06T14:09:07.951Z,56.31
2018-01-06T14:11:39.912Z,56.38
2018-01-06T14:14:11.531Z,56.32
2018-01-06T14:16:43.736Z,56.68
2018-01-06T14:19:16.812Z,56.79
2018-01-06T14:21:53.382Z,56.63
2018-01-06T14:24:36.581Z,56.32
2018-01-06T14:27:13.116Z,56.21
2018-01-06T14:29:45.606Z,56.08
2018-01-06T14:32:24.182Z,56.20
2018-01-06T14:35:19.937Z,56.45
2018-01-06T14:37:52.517Z,56.50
2018-01-06T14:40:23.455Z,56.36
2018-01-06T14:43:03.288Z,56.10
2018-01-06T14:45:36.706Z,56.44
2018-01-06T14:48:12.356Z,56.27
2018-01-06T14:50:42.969Z,56.31
2018-01-06T14:53:28.167Z,56.81
2018-01-06T14:56:04.580Z,57.20
2018-01-06T14:58:37.457Z,57.84
2018-01-06T15:01:12.132Z,58.78
2018-01-06T15:03:44.533Z,59.22
2018-01-06T15:06:18.309Z,59.79
2018-01-06T15:08:55.526Z,59.60
2018-01-06T15:11:51.824Z,59.81
2018-01-06T15:14:27.290Z,60.44
2018-01-06T15:17:00.158Z,61.18
2018-01-06T15:19:31.847Z,61.45
2018-01-06T15:22:05.538Z,61.42
2018-01-06T15:24:48.126Z,61.29
2018-01-06T15:27:21.964Z,61.23
2018-01-06T15:29:55.007Z,61.23
2018-01-06T15:32:32.566Z,61.07
2018-01-06T15:35:07.211Z,61.01
2018-01-06T15:37:39.097Z,60.81
2018-01-06T15:40:12.098Z,60.85
2018-01-06T15:42:43.959Z,61.16
2018-01-06T15:45:17.736Z,61.34
2018-01-06T15:47:48.238Z,61.38
2018-01-06T15:50:18.869Z,61.70
2018-01-06T15:52:49.659Z,62.00
2018-01-06T15:55:23.567Z,61.92
2018-01-06T15:57:59.162Z,62.43
2018-01-06T16:00:32.162Z,62.80
2018-01-06T16:03:04.453Z,62.53
2018-01-06T16:05:34.973Z,62.36
2018-01-06T16:08:25.487Z,62.78
2018-01-06T16:10:56.368Z,63.47
2018-01-06T16:13:27.933Z,63.66
2018-01-06T16:16:01.189Z,63.44
2018-01-06T16:18:37.779Z,63.40
2018-01-06T16:21:20.951Z,63.39
2018-01-06T16:23:52.832Z,63.08
2018-01-06T16:26:26.469Z,63.12
2018-01-06T16:29:01.912Z,63.33
2018-01-06T16:31:39.903Z,63.41
2018-01-06T16:37:05.871Z,62.78
2018-01-06T16:39:38.153Z,62.78
2018-01-06T16:42:13.397Z,63.04
2018-01-06T16:44:48.434Z,62.46
2018-01-06T16:47:23.896Z,62.17
2018-01-06T16:49:59.359Z,62.68
2018-01-06T16:52:38.018Z,62.40
2018-01-06T16:55:14.487Z,63.02
2018-01-06T16:57:50.521Z,63.63
2018-01-06T17:00:24.830Z,63.35
2018-01-06T17:02:57.746Z,63.77
2018-01-06T17:05:34.270Z,63.68
2018-01-06T17:08:08.480Z,63.64
2018-01-06T17:10:40.445Z,63.97
2018-01-06T17:13:11.862Z,64.00
2018-01-06T17:15:47.084Z,64.00
2018-01-06T17:18:20.362Z,63.72
2018-01-06T17:20:54.502Z,63.53
2018-01-06T17:23:27.767Z,63.77
2018-01-06T17:26:03.730Z,64.08
2018-01-06T17:28:41.877Z,63.93
2018-01-06T17:31:16.127Z,64.08
2018-01-06T17:33:47.386Z,64.22
2018-01-06T17:36:19.344Z,64.52
2018-01-06T17:38:51.459Z,64.54
2018-01-06T17:41:24.022Z,64.75
2018-01-06T17:43:56.894Z,64.81
2018-01-06T17:46:28.298Z,64.87
2018-01-06T17:48:59.687Z,65.02
2018-01-06T17:51:37.367Z,64.75
2018-01-06T17:54:09.235Z,64.79
2018-01-06T17:56:41.823Z,64.84
2018-01-06T17:59:13.195Z,64.90
2018-01-06T18:01:47.966Z,64.77
2018-01-06T18:04:24.898Z,64.29
2018-01-06T18:06:56.749Z,64.42
2018-01-06T18:09:29.046Z,64.50
2018-01-06T18:12:01.628Z,64.83
2018-01-06T18:14:33.617Z,64.86
2018-01-06T18:17:05.781Z,65.09
2018-01-06T18:19:41.105Z,65.04
2018-01-06T18:22:17.803Z,65.06
2018-01-06T18:24:49.008Z,64.92
2018-01-06T18:27:21.211Z,64.99
2018-01-06T18:29:54.596Z,65.01
2018-01-06T18:32:29.424Z,65.01
2018-01-06T18:35:03.031Z,64.97
2018-01-06T18:37:34.720Z,65.05
2018-01-06T18:40:06.254Z,64.92
2018-01-06T18:42:38.689Z,64.52
2018-01-06T18:45:14.124Z,64.96
2018-01-06T18:47:47.368Z,65.09
2018-01-06T18:50:22.003Z,65.18
2018-01-06T18:52:55.885Z,65.28
2018-01-06T18:55:27.599Z,65.49
2018-01-06T18:58:00.861Z,65.33
2018-01-06T19:00:37.849Z,65.22
2018-01-06T19:03:12.297Z,65.52
2018-01-06T19:05:45.668Z,66.09
2018-01-06T19:08:17.917Z,65.98
2018-01-06T19:10:49.731Z,65.84
2018-01-06T19:13:23.197Z,65.83
2018-01-06T19:15:57.592Z,66.08
2018-01-06T19:18:31.065Z,66.20
2018-01-06T19:21:03.202Z,66.33
2018-01-06T19:23:40.076Z,66.28
2018-01-06T19:26:21.992Z,66.25
2018-01-06T19:28:55.156Z,65.80
2018-01-06T19:31:32.059Z,65.97
2018-01-06T19:34:14.608Z,65.95
2018-01-06T19:36:52.676Z,65.73
2018-01-06T19:39:28.838Z,65.36
2018-01-06T19:42:03.882Z,65.47
2018-01-06T19:44:39.684Z,65.44
2018-01-06T19:47:17.260Z,65.30
2018-01-06T19:49:59.913Z,65.47
2018-01-06T19:52:50.664Z,65.66
2018-01-06T19:55:28.199Z,66.09
2018-01-06T19:58:04.882Z,66.23
2018-01-06T20:00:41.716Z,66.51
2018-01-06T20:03:15.819Z,66.60
2018-01-06T20:05:51.907Z,66.35
2018-01-06T20:08:28.323Z,66.31
2018-01-06T20:11:05.326Z,66.13
2018-01-06T20:13:37.918Z,65.99
2018-01-06T20:16:10.884Z,66.14
2018-01-06T20:18:45.169Z,66.50
2018-01-06T20:21:21.032Z,66.75
2018-01-06T20:24:05.483Z,66.77
2018-01-06T20:26:40.363Z,66.43
2018-01-06T20:29:14.872Z,66.52
2018-01-06T20:31:47.661Z,66.57
2018-01-06T20:34:23.538Z,66.90
2018-01-06T20:36:56.799Z,66.85
2018-01-06T20:39:29.126Z,66.60
2018-01-06T20:41:59.917Z,66.76
2018-01-06T20:44:30.771Z,66.31
2018-01-06T20:47:02.778Z,66.96
2018-01-06T20:49:33.852Z,67.36
2018-01-06T20:52:05.482Z,67.69
2018-01-06T20:54:36.641Z,67.71
2018-01-06T20:57:07.412Z,67.81
2018-01-06T20:59:38.261Z,68.01
2018-01-06T21:02:09.371Z,67.85
2018-01-06T21:04:40.458Z,67.83
2018-01-06T21:07:22.971Z,68.14
2018-01-06T21:09:54.097Z,68.38
2018-01-06T21:12:25.062Z,68.63
2018-01-06T21:14:55.882Z,68.99
2018-01-06T21:17:27.488Z,69.00
2018-01-06T21:19:59.929Z,68.86
2018-01-06T21:22:32.517Z,68.87
2018-01-06T21:25:05.526Z,68.84
2018-01-06T21:27:38.665Z,68.91
2018-01-06T21:30:15.744Z,69.13
2018-01-06T21:32:51.372Z,69.04
2018-01-06T21:35:29.405Z,68.89
2018-01-06T21:38:12.441Z,69.02
2018-01-06T21:40:47.383Z,69.23
2018-01-06T21:43:21.216Z,69.31
2018-01-06T21:45:56.868Z,69.05
2018-01-06T21:48:31.693Z,69.23
2018-01-06T21:51:03.798Z,69.38
2018-01-06T21:53:35.798Z,69.66
2018-01-06T21:56:07.838Z,69.94
2018-01-06T21:58:39.706Z,70.04
2018-01-06T22:01:10.727Z,70.33
2018-01-06T22:03:41.853Z,70.37
2018-01-06T22:06:14.212Z,70.62
2018-01-06T22:08:46.614Z,70.54
2018-01-06T22:11:20.134Z,70.89
2018-01-06T22:13:50.970Z,70.77
2018-01-06T22:16:22.935Z,70.60
2018-01-06T22:19:00.519Z,70.72
2018-01-06T22:21:35.123Z,70.32
2018-01-06T22:24:10.618Z,70.72
2018-01-06T22:26:41.643Z,70.80
2018-01-06T22:29:12.907Z,70.68
2018-01-06T22:31:44.475Z,70.47
2018-01-06T22:34:16.425Z,70.32
2018-01-06T22:36:47.688Z,70.23
2018-01-06T22:39:19.118Z,70.22
2018-01-06T22:41:50.918Z,70.14
2018-01-06T22:44:32.809Z,69.84
2018-01-06T22:47:04.661Z,69.63
2018-01-06T22:49:36.648Z,69.70
2018-01-06T22:52:07.678Z,69.56
2018-01-06T22:54:41.242Z,69.06
2018-01-06T22:57:13.821Z,68.98
2018-01-06T22:59:44.737Z,68.98
2018-01-06T23:02:16.506Z,68.90
2018-01-06T23:04:48.310Z,69.07
2018-01-06T23:07:21.193Z,68.85
2018-01-06T23:09:53.570Z,68.88
2018-01-06T23:12:26.415Z,69.09
2018-01-06T23:14:58.386Z,69.39
2018-01-06T23:17:31.306Z,69.26
2018-01-06T23:20:02.604Z,69.29
2018-01-06T23:22:34.027Z,69.34
2018-01-06T23:25:08.424Z,69.13
2018-01-06T23:27:39.663Z,69.51
2018-01-06T23:30:14.132Z,69.42
2018-01-06T23:32:46.518Z,69.35
2018-01-06T23:35:20.764Z,69.49
2018-01-06T23:37:55.712Z,69.48
2018-01-06T23:40:27.622Z,69.55
2018-01-06T23:42:59.542Z,69.54
2018-01-06T23:45:32.908Z,69.80
2018-01-06T23:48:07.242Z,70.20
2018-01-06T23:50:44.280Z,70.09
2018-01-06T23:53:18.348Z,70.26
2018-01-06T23:55:49.384Z,69.78
2018-01-06T23:58:26.526Z,70.04
